• Join FlightAware (Why Join?)
  • Login
  • US Flag 
12:44AM EDT


 

Airport Tracker/Info


-or-


 

Live Flight TrackerFlight Track Log ✈ GAO2724 ✈ 14-Oct-2013 ✈ ESSA / ARN - EFTU / TKU

Flight Track Log - Related Links

Times and Time Zones

All times are in EDT time to prevent confusion due to time zone crossing. See the GAO2724 flight status page for this flight to view local times or setup timezone preferences in your user account.

Time Position Orientation Groundspeed Altitude Reporting Facility
EDT Latitude Longitude Course Direction KTS MPH feet Rate Location/Type
08:13AM 59.8953 19.0529 66° East  Level Estimated
08:14AM 59.9250 19.1959 67° East  Level Estimated
08:15AM 59.9546 19.3391 68° East  Level Estimated
08:16AM 59.9841 19.4825 68° East  Level Estimated
08:17AM 60.0133 19.6262 68° East  Level Estimated
08:18AM 60.0424 19.7702 68° East  Level Estimated
08:19AM 60.0714 19.9144 68° East  Level Estimated
08:20AM 60.1002 20.0589 68° East  Level Estimated
08:21AM 60.1288 20.2036 68° East  Level Estimated
08:22AM 60.1573 20.3486 68° East  Level Estimated
08:23AM 60.1856 20.4938 69° East  Level Estimated
08:24AM 60.2138 20.6393 69° East  Level Estimated
08:25AM 60.2418 20.7850 69° East  Level Estimated
08:26AM 60.2696 20.9310 69° East  Level Estimated
08:27AM 60.2973 21.0772 69° East  Level Estimated
08:28AM 60.3248 21.2237 69° East  Level Estimated
08:29AM 60.3522 21.3704 69° East  Level Estimated
08:30AM 60.3794 21.5174 69° East  Level Estimated
08:31AM 60.4064 21.6646 70° East  Level Estimated
08:32AM 60.4333 21.8120 70° East  Level Estimated
08:33AM 60.4600 21.9597 70° East  Level Estimated
08:34AM 60.4865 22.1077 70° East  Level Estimated
08:35AM 60.5129 22.2558 70° East  Level Estimated
08:36AM 60.5141 22.2628 70° East  Level Estimated
08:37AM 60.5141 22.2628 334° Northwest  Level Estimated
08:38AM 60.5141 22.2628 334° Northwest  Level Estimated
08:39AM 60.5141 22.2628 334° Northwest  Level Estimated